Birdeye, Arkansas
Current Conditions -  °F | °C
As of 9:53 AM on Saturday 25 Oct 2014 (Local Time) from KAWM Reporting Station
Clear Clear  
Wind Chill: 67°   Ceiling: Unl
Heat Index: 67°   Visibility: 10mi
Dew Point: 60°   Wind: 6mph
Humidity: 79%   Direction: 250°WSW
Pressure: 30.1"   Gusts: NA
Location:  35.38°N, 90.69°W
Report Text: KAWM 251453Z AUTO 25005KT 10SM CLR 19/16 A3010 RMK AO2 SLP189 T01940156 51005
Loading
Personal Weather Stations






























Interactive Weather Map
Tropical Storm Tracking
New forecast layout! Learn more

10-Day Weather Forecast

Advertisements
Track Severe Weather on mobile